»·PEaware :: N736PM KSLC-KBOI

N736PM :: KSLC-KBOI

FLIGHT INFORMATION

Flight Status: Arrived
Operator: Privately registered:
United States
More flights under this callsign
Pilot: Paul A. (20189)
Aircraft: BOEING 737-600
(B736)
More flights by this aircraft type
Origin: KSLC Salt Lake City Intl
United States
Destination: KBOI Boise Air Terminal/Gowen
United States
More flights between these airports :: More routes between these airports
Route: CGULL1 TWF BROPH SPUUD3
File this flight plan on PilotEdge
Remarks:
Altitude:
(Current/Filed)
28,000ft
Speed:
(Current/Filed)
455kts
Departed: 11-Oct-18 11:28 AM
Arrived: 11-Oct-18 12:13 PM
Distance/Time
Traveled:
252nm/0:44
Distance/Time
To Go:
Arrived

Flight Plot

Page will automatically refresh every two minutes.

Flight plan parsing failed; only flown route is shown


Map Options




Map Legend


Flown Route
Filed Route
Departure Airport
Arrival Airport
Navaid (VOR, NDB)
Fix

Horizontal Profiles

Position Reports

Time Latitude Longitude Heading Altitude Ground
Speed
11-Oct-18 11:16 40.793956 -111.980588 354 4235ft 0kts
11-Oct-18 11:17 40.793956 -111.980588 354 4235ft 0kts
11-Oct-18 11:18 40.793956 -111.980588 354 4235ft 0kts
11-Oct-18 11:19 40.793956 -111.980588 354 4235ft 0kts
11-Oct-18 11:20 40.793956 -111.980588 354 4235ft 0kts
11-Oct-18 11:21 40.793956 -111.980588 354 4235ft 0kts
11-Oct-18 11:22 40.793956 -111.980588 354 4235ft 0kts
11-Oct-18 11:23 40.793957 -111.980588 354 4235ft 0kts
11-Oct-18 11:24 40.793958 -111.980588 354 4235ft 0kts
11-Oct-18 11:25 40.793960 -111.980588 354 4235ft 0kts
11-Oct-18 11:26 40.793962 -111.980589 354 4235ft 0kts
11-Oct-18 11:27 40.795751 -111.978779 352 4235ft 20kts
11-Oct-18 11:28 40.804149 -111.979792 355 4235ft 32kts
11-Oct-18 11:29 40.807544 -111.978396 83 4235ft 0kts
11-Oct-18 11:30 40.795073 -111.975378 174 4239ft 152kts
11-Oct-18 11:31 40.766054 -112.002867 299 7610ft 173kts
11-Oct-18 11:32 40.804370 -112.068054 313 9800ft 263kts
11-Oct-18 11:33 40.860454 -112.143033 312 13001ft 325kts
11-Oct-18 11:34 40.927287 -112.232773 311 16893ft 352kts
11-Oct-18 11:35 40.997705 -112.328026 311 20760ft 372kts
11-Oct-18 11:36 41.073460 -112.426857 318 23061ft 390kts
11-Oct-18 11:37 41.166890 -112.507495 324 25984ft 407kts
11-Oct-18 11:38 41.258510 -112.599952 319 28069ft 421kts
11-Oct-18 11:39 41.339795 -112.709672 309 28098ft 414kts
11-Oct-18 11:40 41.416699 -112.823342 309 28100ft 413kts
11-Oct-18 11:41 41.492160 -112.939130 309 28103ft 413kts
11-Oct-18 11:42 41.567479 -113.055199 309 28107ft 413kts
11-Oct-18 11:43 41.642902 -113.171546 309 28112ft 413kts
11-Oct-18 11:44 41.718599 -113.288132 310 28120ft 413kts
11-Oct-18 11:45 41.793906 -113.404951 310 28125ft 415kts
11-Oct-18 11:46 41.869119 -113.522201 310 28128ft 414kts
11-Oct-18 11:47 41.944236 -113.639795 310 28132ft 415kts
11-Oct-18 11:48 42.019268 -113.757236 311 28133ft 415kts
11-Oct-18 11:49 42.094248 -113.875800 310 28142ft 415kts
11-Oct-18 11:50 42.168913 -113.994341 310 28145ft 415kts
11-Oct-18 11:51 42.243720 -114.112844 311 28148ft 414kts
11-Oct-18 11:52 42.318709 -114.231402 311 28152ft 414kts
11-Oct-18 11:53 42.393207 -114.350320 311 28157ft 416kts
11-Oct-18 11:54 42.467711 -114.469880 312 28159ft 415kts
11-Oct-18 11:55 42.542716 -114.589352 313 28160ft 416kts
11-Oct-18 11:56 42.617058 -114.708028 313 26978ft 409kts
11-Oct-18 11:57 42.690892 -114.826870 312 23453ft 408kts
11-Oct-18 11:58 42.763808 -114.937600 316 21453ft 383kts
11-Oct-18 11:59 42.838043 -115.043228 315 20346ft 384kts
11-Oct-18 12:00 42.911099 -115.148646 315 19235ft 378kts
11-Oct-18 12:01 42.983150 -115.252673 315 16796ft 374kts
11-Oct-18 12:02 43.053284 -115.354976 314 14335ft 362kts
11-Oct-18 12:03 43.121207 -115.454467 313 11793ft 353kts
11-Oct-18 12:04 43.184829 -115.547585 313 11018ft 313kts
11-Oct-18 12:05 43.239691 -115.628077 313 10988ft 274kts
11-Oct-18 12:06 43.292500 -115.702474 317 10557ft 267kts
11-Oct-18 12:07 43.344669 -115.769159 317 8998ft 248kts
11-Oct-18 12:08 43.390703 -115.837218 294 7757ft 241kts
11-Oct-18 12:09 43.436174 -115.902468 319 7017ft 222kts
11-Oct-18 12:10 43.472987 -115.961086 296 6388ft 195kts
11-Oct-18 12:11 43.496978 -116.028024 296 5668ft 197kts
11-Oct-18 12:12 43.519021 -116.091254 296 4658ft 168kts
11-Oct-18 12:13 43.540050 -116.150152 295 3516ft 119kts
11-Oct-18 12:14 43.551378 -116.181483 295 3122ft 113kts
11-Oct-18 12:15 43.563412 -116.216292 349 2842ft 21kts
11-Oct-18 12:16 43.566714 -116.216281 359 2842ft 0kts

Navigation Log

Ident Type
Flight plan parsing failed, navigation log unavailable